createdAt,value
2023-04-25T00:00:35.892Z,14.63
2023-04-25T00:01:39.901Z,14.81
2023-04-25T00:02:44.062Z,16.00
2023-04-25T00:03:48.442Z,16.62
2023-04-25T00:04:53.170Z,16.69
2023-04-25T00:05:57.730Z,13.62
2023-04-25T00:07:01.885Z,15.56
2023-04-25T00:08:06.104Z,16.06
2023-04-25T00:09:10.036Z,16.56
2023-04-25T00:10:14.252Z,15.00
2023-04-25T00:11:18.329Z,15.06
2023-04-25T00:12:22.408Z,17.06
2023-04-25T00:13:38.250Z,14.13
2023-04-25T00:14:32.878Z,16.06
2023-04-25T00:15:36.832Z,13.93
2023-04-25T00:16:40.878Z,16.69
2023-04-25T00:17:46.469Z,13.56
2023-04-25T00:18:50.415Z,14.87
2023-04-25T00:19:54.452Z,15.47
2023-04-25T00:20:58.498Z,16.31
2023-04-25T00:22:02.527Z,16.37
2023-04-25T00:23:07.203Z,15.44
2023-04-25T00:24:11.229Z,16.81
2023-04-25T00:25:15.145Z,14.69
2023-04-25T00:26:20.083Z,15.56
2023-04-25T00:27:23.997Z,17.37
2023-04-25T00:28:27.963Z,17.44
2023-04-25T00:29:31.876Z,12.44
2023-04-25T00:30:35.857Z,16.12
2023-04-25T00:31:39.969Z,17.31
2023-04-25T00:32:44.073Z,17.81
2023-04-25T00:33:49.098Z,16.44
2023-04-25T00:34:53.498Z,18.31
2023-04-25T00:35:59.757Z,18.44
2023-04-25T00:37:04.983Z,17.75
2023-04-25T00:38:12.754Z,16.37
2023-04-25T00:39:21.455Z,17.56
2023-04-25T00:40:23.901Z,18.75
2023-04-25T00:41:28.465Z,17.12
2023-04-25T00:42:33.502Z,13.81
2023-04-25T00:43:38.733Z,14.87
2023-04-25T00:44:43.854Z,16.62
2023-04-25T00:45:49.166Z,15.06
2023-04-25T00:46:55.031Z,17.06
2023-04-25T00:47:59.167Z,15.69
2023-04-25T00:49:03.164Z,18.00
2023-04-25T00:50:08.313Z,17.44
2023-04-25T00:51:18.031Z,16.94
2023-04-25T00:52:22.275Z,16.94
2023-04-25T00:53:27.968Z,16.62
2023-04-25T00:54:32.099Z,18.31
2023-04-25T00:55:36.133Z,17.62
2023-04-25T00:56:43.136Z,17.19
2023-04-25T00:57:47.070Z,15.63
2023-04-25T00:58:53.208Z,15.81
2023-04-25T00:59:57.528Z,13.25
2023-04-25T01:01:02.101Z,18.06
2023-04-25T01:02:06.583Z,17.50
2023-04-25T01:03:10.791Z,15.20
2023-04-25T01:04:15.773Z,17.69
2023-04-25T01:05:19.973Z,18.19
2023-04-25T01:06:25.543Z,18.44
2023-04-25T01:07:29.442Z,15.50
2023-04-25T01:08:33.303Z,16.81
2023-04-25T01:09:37.854Z,16.69
2023-04-25T01:10:41.739Z,12.81
2023-04-25T01:11:47.882Z,17.50
2023-04-25T01:12:53.507Z,17.69
2023-04-25T01:13:59.278Z,18.19
2023-04-25T01:15:03.364Z,16.62
2023-04-25T01:16:10.182Z,18.19
2023-04-25T01:17:14.653Z,16.81
2023-04-25T01:18:19.365Z,14.25
2023-04-25T01:19:23.653Z,16.44
2023-04-25T01:20:30.032Z,17.19
2023-04-25T01:21:34.080Z,17.00
2023-04-25T01:22:38.250Z,16.87
2023-04-25T01:23:42.898Z,17.62
2023-04-25T01:24:48.735Z,17.94
2023-04-25T01:25:52.882Z,18.06
2023-04-25T01:27:03.877Z,19.44
2023-04-25T01:28:02.862Z,19.06
2023-04-25T01:29:07.552Z,18.25
2023-04-25T01:30:13.314Z,18.81
2023-04-25T01:31:18.083Z,18.87
2023-04-25T01:32:24.129Z,17.80
2023-04-25T01:33:30.337Z,18.31
2023-04-25T01:34:36.638Z,19.06
2023-04-25T01:35:40.843Z,14.38
2023-04-25T01:36:46.342Z,18.75
2023-04-25T01:37:52.879Z,16.06
2023-04-25T01:38:56.649Z,17.69
2023-04-25T01:40:02.510Z,17.25
2023-04-25T01:41:07.088Z,17.87
2023-04-25T01:42:11.040Z,17.44
2023-04-25T01:43:15.057Z,20.31
2023-04-25T01:44:19.056Z,17.94
2023-04-25T01:45:23.079Z,16.00
2023-04-25T01:46:30.937Z,17.37
2023-04-25T01:47:37.432Z,17.94
2023-04-25T01:48:41.039Z,17.00
2023-04-25T01:49:44.973Z,18.19
2023-04-25T01:50:49.581Z,16.62
2023-04-25T01:51:53.766Z,16.75
2023-04-25T01:52:58.164Z,18.06
2023-04-25T01:54:04.685Z,17.19
2023-04-25T01:55:08.656Z,15.93
2023-04-25T01:56:13.941Z,18.00
2023-04-25T01:57:19.516Z,16.62
2023-04-25T01:58:23.394Z,14.50
2023-04-25T01:59:27.255Z,17.06
2023-04-25T02:00:31.185Z,17.25
2023-04-25T02:01:35.130Z,17.19
2023-04-25T02:02:39.724Z,17.00
2023-04-25T02:03:44.368Z,18.75
2023-04-25T02:04:48.603Z,17.12
2023-04-25T02:05:52.588Z,17.94
2023-04-25T02:06:56.594Z,18.31
2023-04-25T02:08:00.567Z,19.19
2023-04-25T02:09:04.612Z,16.94
2023-04-25T02:10:09.534Z,19.75
2023-04-25T02:11:13.420Z,18.00
2023-04-25T02:12:17.309Z,17.67
2023-04-25T02:13:22.921Z,19.87
2023-04-25T02:14:28.378Z,18.56
2023-04-25T02:15:32.614Z,18.12
2023-04-25T02:16:36.755Z,17.50
2023-04-25T02:17:42.492Z,18.69
2023-04-25T02:18:46.587Z,18.62
2023-04-25T02:19:50.633Z,18.50
2023-04-25T02:20:54.838Z,18.69
2023-04-25T02:21:58.888Z,19.06
2023-04-25T02:23:03.029Z,17.75
2023-04-25T02:24:07.677Z,16.62
2023-04-25T02:25:12.333Z,17.50
2023-04-25T02:26:19.024Z,17.94
2023-04-25T02:27:22.978Z,17.00
2023-04-25T02:28:33.532Z,17.75
2023-04-25T02:29:34.214Z,19.00
2023-04-25T02:30:38.580Z,13.62
2023-04-25T02:31:42.766Z,16.31
2023-04-25T02:32:49.819Z,17.44
2023-04-25T02:33:53.845Z,18.25
2023-04-25T02:34:59.231Z,16.69
2023-04-25T02:36:03.248Z,19.06
2023-04-25T02:37:07.182Z,18.12
2023-04-25T02:38:11.088Z,19.60
2023-04-25T02:39:17.494Z,16.94
2023-04-25T02:40:21.474Z,18.62
2023-04-25T02:41:25.426Z,18.69
2023-04-25T02:42:29.669Z,18.19
2023-04-25T02:43:34.664Z,17.94
2023-04-25T02:44:38.559Z,17.31
2023-04-25T02:45:42.455Z,18.37
2023-04-25T02:46:47.794Z,17.31
2023-04-25T02:47:51.743Z,13.00
2023-04-25T02:48:55.701Z,16.31
2023-04-25T02:49:59.654Z,19.94
2023-04-25T02:51:03.632Z,20.81
2023-04-25T02:52:07.877Z,19.56
2023-04-25T02:53:11.891Z,19.69
2023-04-25T02:54:15.881Z,17.56
2023-04-25T02:55:19.859Z,18.25
2023-04-25T02:56:24.025Z,20.19
2023-04-25T02:57:28.051Z,19.44
2023-04-25T02:58:31.929Z,19.75
2023-04-25T02:59:36.115Z,19.25
2023-04-25T03:00:40.284Z,18.00
2023-04-25T03:01:44.241Z,19.06
2023-04-25T03:03:16.085Z,20.06
2023-04-25T03:04:39.176Z,20.56
2023-04-25T03:05:43.523Z,17.80
2023-04-25T03:06:47.895Z,19.37
2023-04-25T03:07:53.708Z,17.94
2023-04-25T03:08:57.831Z,17.31
2023-04-25T03:10:03.258Z,16.87
2023-04-25T03:11:07.480Z,16.37
2023-04-25T03:12:12.698Z,17.94
2023-04-25T03:13:16.852Z,16.25
2023-04-25T03:14:20.907Z,16.37
2023-04-25T03:15:25.090Z,16.62
2023-04-25T03:16:29.108Z,17.19
2023-04-25T03:17:34.441Z,17.62
2023-04-25T03:18:38.437Z,16.12
2023-04-25T03:19:42.345Z,16.50
2023-04-25T03:20:46.424Z,16.37
2023-04-25T03:21:50.420Z,15.31
2023-04-25T03:22:57.809Z,17.75
2023-04-25T03:24:02.230Z,15.75
2023-04-25T03:25:06.899Z,16.00
2023-04-25T03:26:13.807Z,16.12
2023-04-25T03:27:18.359Z,17.81
2023-04-25T03:28:23.927Z,17.75
2023-04-25T03:29:27.827Z,18.87
2023-04-25T03:30:31.797Z,20.69
2023-04-25T03:31:35.797Z,19.12
2023-04-25T03:32:39.880Z,16.00
2023-04-25T03:33:43.797Z,10.69
2023-04-25T03:34:47.756Z,14.87
2023-04-25T03:35:52.530Z,16.44
2023-04-25T03:36:57.828Z,13.38
2023-04-25T03:38:01.725Z,16.00
2023-04-25T03:39:05.639Z,14.87
2023-04-25T03:40:10.111Z,15.38
2023-04-25T03:41:14.046Z,17.12
2023-04-25T03:42:18.096Z,15.44
2023-04-25T03:43:22.051Z,13.50
2023-04-25T03:44:25.992Z,16.56
2023-04-25T03:45:29.871Z,16.06
2023-04-25T03:46:35.444Z,14.25
2023-04-25T03:47:39.449Z,15.06
2023-04-25T03:48:43.345Z,16.12
2023-04-25T03:49:47.275Z,15.31
2023-04-25T03:50:51.526Z,14.69
2023-04-25T03:51:55.521Z,14.63
2023-04-25T03:52:59.380Z,15.00
2023-04-25T03:54:03.266Z,17.12
2023-04-25T03:55:07.485Z,14.07
2023-04-25T03:56:11.803Z,17.00
2023-04-25T03:57:16.016Z,12.00
2023-04-25T03:58:20.067Z,14.25
2023-04-25T03:59:24.037Z,17.75
2023-04-25T04:00:28.068Z,18.62
2023-04-25T04:01:32.019Z,17.44
2023-04-25T04:02:35.939Z,16.19
2023-04-25T04:03:40.191Z,15.13
2023-04-25T04:04:44.422Z,16.00
2023-04-25T04:05:48.871Z,14.56
2023-04-25T04:06:52.910Z,17.25
2023-04-25T04:07:57.240Z,9.44
2023-04-25T04:09:01.228Z,17.12
2023-04-25T04:10:05.420Z,14.13
2023-04-25T04:11:09.447Z,16.31
2023-04-25T04:12:13.328Z,15.56
2023-04-25T04:13:17.230Z,17.19
2023-04-25T04:14:21.134Z,17.06
2023-04-25T04:15:25.023Z,16.06
2023-04-25T04:16:29.058Z,13.06
2023-04-25T04:17:33.683Z,18.50
2023-04-25T04:18:37.726Z,6.94
2023-04-25T04:19:41.674Z,17.69
2023-04-25T04:20:45.624Z,18.87
2023-04-25T04:21:49.561Z,18.62
2023-04-25T04:22:53.432Z,17.69
2023-04-25T04:23:57.331Z,17.31
2023-04-25T04:25:01.338Z,19.00
2023-04-25T04:26:05.316Z,17.81
2023-04-25T04:27:09.184Z,16.87
2023-04-25T04:28:14.717Z,13.50
2023-04-25T04:29:18.761Z,16.00
2023-04-25T04:30:26.105Z,15.00
2023-04-25T04:31:30.280Z,16.87
2023-04-25T04:32:34.274Z,15.47
2023-04-25T04:33:38.286Z,15.38
2023-04-25T04:34:42.387Z,15.81
2023-04-25T04:35:46.773Z,14.25
2023-04-25T04:36:50.800Z,9.63
2023-04-25T04:37:55.139Z,15.69
2023-04-25T04:38:59.038Z,17.25
2023-04-25T04:40:03.016Z,15.31
2023-04-25T04:41:07.249Z,13.75
2023-04-25T04:42:11.167Z,12.63
2023-04-25T04:43:15.219Z,16.00
2023-04-25T04:44:19.189Z,14.00
2023-04-25T04:45:23.135Z,14.81
2023-04-25T04:46:27.129Z,14.63
2023-04-25T04:47:31.133Z,14.50
2023-04-25T04:48:35.152Z,12.06
2023-04-25T04:49:39.115Z,14.44
2023-04-25T04:50:44.899Z,11.94
2023-04-25T04:51:48.959Z,14.69
2023-04-25T04:52:52.840Z,15.13
2023-04-25T04:53:56.693Z,15.13
2023-04-25T04:55:00.596Z,13.69
2023-04-25T04:56:04.776Z,15.75
2023-04-25T04:57:08.760Z,11.38
2023-04-25T04:58:12.685Z,10.63
2023-04-25T04:59:16.561Z,13.62
2023-04-25T05:00:21.162Z,13.06
2023-04-25T05:01:26.011Z,14.38
2023-04-25T05:02:30.161Z,12.94
2023-04-25T05:03:34.471Z,16.69
2023-04-25T05:04:38.665Z,12.06
2023-04-25T05:05:43.170Z,13.25
2023-04-25T05:06:48.928Z,12.56
2023-04-25T05:07:53.035Z,14.19
2023-04-25T05:08:57.634Z,12.81
2023-04-25T05:10:01.584Z,14.56
2023-04-25T05:11:05.632Z,13.00
2023-04-25T05:12:09.556Z,11.56
2023-04-25T05:13:15.181Z,14.13
2023-04-25T05:14:19.320Z,14.81
2023-04-25T05:15:23.192Z,12.75
2023-04-25T05:16:28.713Z,14.44
2023-04-25T05:17:32.810Z,14.00
2023-04-25T05:18:36.704Z,12.19
2023-04-25T05:19:40.984Z,16.19
2023-04-25T05:20:44.929Z,17.50
2023-04-25T05:21:48.979Z,21.12
2023-04-25T05:22:52.871Z,26.25
2023-04-25T05:23:57.331Z,28.19
2023-04-25T05:25:01.214Z,27.56
2023-04-25T05:26:05.401Z,30.06
2023-04-25T05:27:09.272Z,29.81
2023-04-25T05:28:14.304Z,28.31
2023-04-25T05:29:18.217Z,28.31
2023-04-25T05:30:22.684Z,29.56
2023-04-25T05:31:26.787Z,28.06
2023-04-25T05:32:30.886Z,29.94
2023-04-25T05:33:34.838Z,28.81
2023-04-25T05:34:38.819Z,29.00
2023-04-25T05:35:42.996Z,30.25
2023-04-25T05:36:47.132Z,30.69
2023-04-25T05:37:51.052Z,29.63
2023-04-25T05:38:55.075Z,30.50
2023-04-25T05:39:58.976Z,29.37
2023-04-25T05:41:03.047Z,29.25
2023-04-25T05:42:07.059Z,31.37
2023-04-25T05:43:11.037Z,30.06
2023-04-25T05:44:15.027Z,29.12
2023-04-25T05:45:19.141Z,29.50
2023-04-25T05:46:23.243Z,29.75
2023-04-25T05:47:27.383Z,29.69
2023-04-25T05:48:31.396Z,30.50
2023-04-25T05:49:36.051Z,29.94
2023-04-25T05:50:39.996Z,27.56
2023-04-25T05:51:44.084Z,27.75
2023-04-25T05:52:48.013Z,30.88
2023-04-25T05:53:52.336Z,29.63
2023-04-25T05:54:56.752Z,28.94
2023-04-25T05:56:00.692Z,28.31
2023-04-25T05:57:04.811Z,27.87
2023-04-25T05:58:08.727Z,28.06
2023-04-25T05:59:14.308Z,29.31
2023-04-25T06:00:18.404Z,30.75
2023-04-25T06:01:24.122Z,29.06
2023-04-25T06:02:28.299Z,29.56
2023-04-25T06:03:32.530Z,29.81
2023-04-25T06:04:36.911Z,31.50
2023-04-25T06:05:42.483Z,33.50
2023-04-25T06:06:46.739Z,30.80
2023-04-25T06:07:50.769Z,30.00
2023-04-25T06:08:54.828Z,29.25
2023-04-25T06:09:59.178Z,30.50
2023-04-25T06:11:03.152Z,33.81
2023-04-25T06:12:07.733Z,34.19
2023-04-25T06:13:11.756Z,31.87
2023-04-25T06:14:15.643Z,33.81
2023-04-25T06:16:25.550Z,30.56
2023-04-25T06:17:29.667Z,28.19
2023-04-25T06:18:33.646Z,26.81
2023-04-25T06:19:38.002Z,25.37
2023-04-25T06:20:41.982Z,27.31
2023-04-25T06:21:46.262Z,27.62
2023-04-25T06:22:53.086Z,25.44
2023-04-25T06:23:56.073Z,23.75
2023-04-25T06:25:01.267Z,25.25
2023-04-25T06:26:05.306Z,23.00
2023-04-25T06:27:09.371Z,24.50
2023-04-25T06:28:13.457Z,25.00
2023-04-25T06:29:17.424Z,23.31
2023-04-25T06:30:21.422Z,24.87
2023-04-25T06:31:25.407Z,23.38
2023-04-25T06:32:29.393Z,23.56
2023-04-25T06:33:33.344Z,22.25
2023-04-25T06:34:37.419Z,24.31
2023-04-25T06:35:41.552Z,24.12
2023-04-25T06:36:45.538Z,25.88
2023-04-25T06:37:49.514Z,22.50
2023-04-25T06:38:53.897Z,23.81
2023-04-25T06:39:57.921Z,20.33
2023-04-25T06:41:01.859Z,21.37
2023-04-25T06:42:05.741Z,24.06
2023-04-25T06:43:09.700Z,23.75
2023-04-25T06:44:13.587Z,21.06
2023-04-25T06:45:17.579Z,17.31
2023-04-25T06:46:21.528Z,14.56
2023-04-25T06:47:25.617Z,13.75
2023-04-25T06:48:29.778Z,14.75
2023-04-25T06:49:35.333Z,17.81
2023-04-25T06:50:39.248Z,14.44
2023-04-25T06:51:43.180Z,16.06
2023-04-25T06:52:47.048Z,16.12
2023-04-25T06:53:50.984Z,14.44
2023-04-25T06:54:54.883Z,9.44
2023-04-25T06:55:58.744Z,9.31
2023-04-25T06:57:02.758Z,7.00
2023-04-25T06:58:06.638Z,5.87
2023-04-25T06:59:10.642Z,5.56
2023-04-25T07:00:15.357Z,6.31
2023-04-25T07:01:19.341Z,4.25
2023-04-25T07:02:23.458Z,1.00
2023-04-25T07:03:27.503Z,3.56
2023-04-25T07:04:31.691Z,5.50
2023-04-25T07:05:37.641Z,5.19
2023-04-25T07:06:41.666Z,5.00
2023-04-25T07:07:47.542Z,4.81
2023-04-25T07:08:51.255Z,4.69
2023-04-25T07:09:55.353Z,4.87
2023-04-25T07:10:59.358Z,4.69
2023-04-25T07:12:03.304Z,4.00
2023-04-25T07:13:07.320Z,4.50
2023-04-25T07:14:11.347Z,4.19
2023-04-25T07:15:15.365Z,2.69
2023-04-25T07:16:19.502Z,3.06
2023-04-25T07:17:23.455Z,4.25
2023-04-25T07:18:28.654Z,3.56
2023-04-25T07:19:34.515Z,3.37
2023-04-25T07:20:38.422Z,4.94
2023-04-25T07:21:42.272Z,6.12
2023-04-25T07:22:46.137Z,4.50
2023-04-25T07:23:51.645Z,4.50
2023-04-25T07:24:55.621Z,5.25
2023-04-25T07:25:59.555Z,4.25
2023-04-25T07:27:04.921Z,4.62
2023-04-25T07:28:08.921Z,5.25
2023-04-25T07:29:12.862Z,1.50
2023-04-25T07:30:16.973Z,4.12
2023-04-25T07:31:20.857Z,5.69
2023-04-25T07:32:24.971Z,4.75
2023-04-25T07:33:29.454Z,3.44
2023-04-25T07:34:34.956Z,5.00
2023-04-25T07:35:38.874Z,4.50
2023-04-25T07:36:42.919Z,3.12
2023-04-25T07:37:46.851Z,4.06
2023-04-25T07:38:51.037Z,5.25
2023-04-25T07:39:55.124Z,5.31
2023-04-25T07:40:59.177Z,3.44
2023-04-25T07:42:03.043Z,4.62
2023-04-25T07:43:06.934Z,4.44
2023-04-25T07:44:10.868Z,5.44
2023-04-25T07:45:14.739Z,6.37
2023-04-25T07:46:18.838Z,5.44
2023-04-25T07:47:22.885Z,4.37
2023-04-25T07:48:26.826Z,8.56
2023-04-25T07:49:30.792Z,5.50
2023-04-25T07:50:34.692Z,4.62
2023-04-25T07:51:38.731Z,7.19
2023-04-25T07:52:42.675Z,4.87
2023-04-25T07:53:48.343Z,3.75
2023-04-25T07:54:52.658Z,3.37
2023-04-25T07:55:56.689Z,4.94
2023-04-25T07:57:00.857Z,4.31
2023-04-25T07:58:04.908Z,5.00
2023-04-25T07:59:08.887Z,4.94
2023-04-25T08:00:14.130Z,5.50
2023-04-25T08:01:18.088Z,3.87
2023-04-25T08:02:22.001Z,5.19
2023-04-25T08:03:26.062Z,4.87
2023-04-25T08:04:30.305Z,4.31
2023-04-25T08:05:34.467Z,4.19
2023-04-25T08:06:38.634Z,4.12
2023-04-25T08:07:43.111Z,3.94
2023-04-25T08:08:47.659Z,4.31
2023-04-25T08:09:51.601Z,5.31
2023-04-25T08:10:58.710Z,4.31
2023-04-25T08:12:02.733Z,3.25
2023-04-25T08:13:06.712Z,5.12
2023-04-25T08:14:10.820Z,7.00
2023-04-25T08:15:14.834Z,4.87
2023-04-25T08:16:19.823Z,2.37
2023-04-25T08:17:23.824Z,4.00
2023-04-25T08:18:27.947Z,4.87
2023-04-25T08:19:32.060Z,1.75
2023-04-25T08:20:36.014Z,3.44
2023-04-25T08:21:40.009Z,11.88
2023-04-25T08:22:44.234Z,4.00
2023-04-25T08:23:49.680Z,3.87
2023-04-25T08:24:53.649Z,4.44
2023-04-25T08:25:57.645Z,5.00
2023-04-25T08:27:01.750Z,4.81
2023-04-25T08:28:07.225Z,4.25
2023-04-25T08:29:11.320Z,3.44
2023-04-25T08:30:15.549Z,2.94
2023-04-25T08:31:19.911Z,3.44
2023-04-25T08:32:23.894Z,3.81
2023-04-25T08:33:27.946Z,2.81
2023-04-25T08:34:32.006Z,2.44
2023-04-25T08:35:36.058Z,3.94
2023-04-25T08:36:40.980Z,3.44
2023-04-25T08:37:44.978Z,5.37
2023-04-25T08:38:49.210Z,3.56
2023-04-25T08:39:53.466Z,4.37
2023-04-25T08:41:00.278Z,3.75
2023-04-25T08:42:06.898Z,2.87
2023-04-25T08:43:12.755Z,3.94
2023-04-25T08:44:18.302Z,2.56
2023-04-25T08:45:22.515Z,3.00
2023-04-25T08:46:27.137Z,2.69
2023-04-25T08:47:33.397Z,3.87
2023-04-25T08:48:49.485Z,3.69
2023-04-25T08:49:46.730Z,3.00
2023-04-25T08:50:55.341Z,3.75
2023-04-25T08:52:01.970Z,4.37
2023-04-25T08:53:07.931Z,4.00
2023-04-25T08:55:21.726Z,4.00
2023-04-25T08:56:26.388Z,3.31
2023-04-25T08:57:32.507Z,4.87
2023-04-25T08:58:37.019Z,3.62
2023-04-25T08:59:42.010Z,3.69
2023-04-25T09:00:50.000Z,2.62
2023-04-25T09:01:53.979Z,2.06
2023-04-25T09:02:59.550Z,0.37
2023-04-25T09:04:03.866Z,3.37
2023-04-25T09:05:08.878Z,3.25
2023-04-25T09:06:13.081Z,3.62
2023-04-25T09:07:17.073Z,5.19
2023-04-25T09:08:21.086Z,6.37
2023-04-25T09:09:25.982Z,10.75
2023-04-25T09:10:33.047Z,17.56
2023-04-25T09:11:37.033Z,22.81
2023-04-25T09:12:41.406Z,33.81
2023-04-25T09:13:46.579Z,40.12
2023-04-25T09:15:09.312Z,38.38
2023-04-25T09:16:14.928Z,29.12
2023-04-25T09:17:19.943Z,32.19
2023-04-25T09:18:30.806Z,37.19
2023-04-25T09:19:41.085Z,34.19
2023-04-25T09:21:00.889Z,37.19
2023-04-25T09:21:58.328Z,24.87
2023-04-25T09:23:06.450Z,24.69
2023-04-25T09:24:10.445Z,25.50
2023-04-25T09:25:15.082Z,11.81
2023-04-25T09:26:21.293Z,4.69
2023-04-25T09:27:25.234Z,3.12
2023-04-25T09:28:30.920Z,5.50
2023-04-25T09:29:36.633Z,5.06
2023-04-25T09:30:40.903Z,6.25
2023-04-25T09:31:44.763Z,5.37
2023-04-25T09:32:49.117Z,6.19
2023-04-25T09:33:56.915Z,6.69
2023-04-25T09:35:00.943Z,5.25
2023-04-25T09:36:10.440Z,6.19
2023-04-25T09:37:15.944Z,6.69
2023-04-25T09:38:20.315Z,6.19
2023-04-25T09:39:24.133Z,5.62
2023-04-25T09:40:28.126Z,5.00
2023-04-25T09:41:32.116Z,5.56
2023-04-25T09:42:36.039Z,5.62
2023-04-25T09:43:40.653Z,5.81
2023-04-25T09:44:46.590Z,2.19
2023-04-25T09:45:52.209Z,4.25
2023-04-25T09:46:56.204Z,5.37
2023-04-25T09:48:03.144Z,5.25
2023-04-25T09:49:10.169Z,2.87
2023-04-25T09:50:19.060Z,4.25
2023-04-25T09:51:25.982Z,2.56
2023-04-25T09:52:29.973Z,3.56
2023-04-25T09:54:52.394Z,6.25
2023-04-25T09:55:57.619Z,6.62
2023-04-25T09:57:13.246Z,5.94
2023-04-25T09:58:17.666Z,4.87
2023-04-25T09:59:24.964Z,5.87
2023-04-25T10:00:30.125Z,4.75
2023-04-25T10:01:34.718Z,5.31
2023-04-25T10:02:42.103Z,5.69
2023-04-25T10:03:50.857Z,3.87
2023-04-25T10:04:58.721Z,6.00
2023-04-25T10:06:05.081Z,5.25
2023-04-25T10:07:10.206Z,6.00
2023-04-25T10:08:14.649Z,7.94
2023-04-25T10:09:20.535Z,6.31
2023-04-25T10:10:25.553Z,4.75
2023-04-25T10:11:30.037Z,6.31
2023-04-25T10:12:35.413Z,5.31
2023-04-25T10:13:39.258Z,4.62
2023-04-25T10:14:43.701Z,5.56
2023-04-25T10:15:48.282Z,8.75
2023-04-25T10:16:53.060Z,4.31
2023-04-25T10:17:59.800Z,3.62
2023-04-25T10:19:04.686Z,4.19
2023-04-25T10:20:10.454Z,5.06
2023-04-25T10:21:16.297Z,6.00
2023-04-25T10:22:40.969Z,5.94
2023-04-25T10:23:45.830Z,3.94
2023-04-25T10:24:52.095Z,6.06
2023-04-25T10:25:56.431Z,4.81
2023-04-25T10:27:00.862Z,3.81
2023-04-25T10:28:06.237Z,5.00
2023-04-25T10:29:11.264Z,6.06
2023-04-25T10:30:17.059Z,5.62
2023-04-25T10:31:22.446Z,4.56
2023-04-25T10:32:26.380Z,7.00
2023-04-25T10:33:44.100Z,6.87
2023-04-25T10:34:48.255Z,5.25
2023-04-25T10:35:52.390Z,5.00
2023-04-25T10:36:57.998Z,4.94
2023-04-25T10:38:12.713Z,4.75
2023-04-25T10:39:19.698Z,5.19
2023-04-25T10:40:24.208Z,4.94
2023-04-25T10:41:28.778Z,5.25
2023-04-25T10:42:34.273Z,4.44
2023-04-25T10:43:41.041Z,4.50
2023-04-25T10:44:47.948Z,4.44
2023-04-25T10:45:54.063Z,4.69
2023-04-25T10:46:59.585Z,4.25
2023-04-25T10:48:03.636Z,3.81
2023-04-25T10:49:09.645Z,2.56
2023-04-25T10:50:16.749Z,5.56
2023-04-25T10:51:25.756Z,3.94
2023-04-25T10:52:29.711Z,5.44
2023-04-25T10:53:35.522Z,5.00
2023-04-25T10:54:58.323Z,4.75
2023-04-25T10:56:03.874Z,4.75
2023-04-25T10:57:10.877Z,4.25
2023-04-25T10:58:14.813Z,5.56
2023-04-25T10:59:20.435Z,5.00
2023-04-25T11:00:25.977Z,4.87
2023-04-25T11:01:33.756Z,4.12
2023-04-25T11:02:46.809Z,4.87
2023-04-25T11:03:52.676Z,4.87
2023-04-25T11:04:56.726Z,4.50
2023-04-25T11:06:03.220Z,4.50
2023-04-25T11:07:15.820Z,3.87
2023-04-25T11:08:22.741Z,3.37
2023-04-25T11:09:27.309Z,4.12
2023-04-25T11:10:32.953Z,5.31
2023-04-25T11:11:38.410Z,3.94
2023-04-25T11:12:44.151Z,5.37
2023-04-25T11:13:51.525Z,4.19
2023-04-25T11:15:01.270Z,5.44
2023-04-25T11:16:12.579Z,4.31
2023-04-25T11:17:12.385Z,3.19
2023-04-25T11:18:20.346Z,3.87
2023-04-25T11:19:25.599Z,4.75
2023-04-25T11:20:29.933Z,4.37
2023-04-25T11:21:33.988Z,3.44
2023-04-25T11:22:38.899Z,3.44
2023-04-25T11:23:44.371Z,0.37
2023-04-25T11:24:48.701Z,3.06
2023-04-25T11:25:52.751Z,3.62
2023-04-25T11:26:57.728Z,2.62
2023-04-25T11:28:01.701Z,3.94
2023-04-25T11:29:05.655Z,3.31
2023-04-25T11:30:14.701Z,7.00
2023-04-25T11:31:23.166Z,6.12
2023-04-25T11:32:27.734Z,18.31
2023-04-25T11:33:31.980Z,14.75
2023-04-25T11:34:36.453Z,12.75
2023-04-25T11:35:42.222Z,13.56
2023-04-25T11:36:47.338Z,14.44
2023-04-25T11:37:51.477Z,13.00
2023-04-25T11:38:55.721Z,15.13
2023-04-25T11:39:59.679Z,17.31
2023-04-25T11:41:04.294Z,17.31
2023-04-25T11:42:12.122Z,16.87
2023-04-25T11:43:13.818Z,14.06
2023-04-25T11:44:18.826Z,11.81
2023-04-25T11:45:24.266Z,9.94
2023-04-25T11:46:28.585Z,9.31
2023-04-25T11:47:33.393Z,10.63
2023-04-25T11:48:43.892Z,7.25
2023-04-25T11:49:47.798Z,6.06
2023-04-25T11:50:51.664Z,7.31
2023-04-25T11:51:55.628Z,7.06
2023-04-25T11:53:01.082Z,5.44
2023-04-25T11:54:06.067Z,6.00
2023-04-25T11:55:20.841Z,6.37
2023-04-25T11:56:24.818Z,6.44
2023-04-25T11:57:30.251Z,6.69
2023-04-25T11:58:37.234Z,6.75
2023-04-25T11:59:41.414Z,5.94
2023-04-25T12:00:50.161Z,9.75
2023-04-25T12:01:51.413Z,5.75
2023-04-25T12:02:57.249Z,7.50
2023-04-25T12:04:16.503Z,6.87
2023-04-25T12:05:32.122Z,3.81
2023-04-25T12:06:30.496Z,5.87
2023-04-25T12:07:34.481Z,6.56
2023-04-25T12:08:38.403Z,4.87
2023-04-25T12:09:42.350Z,6.87
2023-04-25T12:10:47.877Z,6.19
2023-04-25T12:11:56.512Z,4.81
2023-04-25T12:13:00.393Z,2.12
2023-04-25T12:14:05.117Z,3.12
2023-04-25T12:15:14.551Z,4.50
2023-04-25T12:16:18.695Z,6.25
2023-04-25T12:17:23.748Z,5.56
2023-04-25T12:18:27.816Z,6.12
2023-04-25T12:19:37.415Z,6.75
2023-04-25T12:20:42.653Z,7.44
2023-04-25T12:21:57.294Z,7.50
2023-04-25T12:22:53.363Z,6.25
2023-04-25T12:23:57.479Z,6.69
2023-04-25T12:25:01.499Z,5.75
2023-04-25T12:26:05.673Z,6.19
2023-04-25T12:27:09.697Z,5.81
2023-04-25T12:28:21.392Z,6.00
2023-04-25T12:29:29.528Z,6.75
2023-04-25T12:30:36.136Z,6.00
2023-04-25T12:31:40.178Z,6.00
2023-04-25T12:32:44.165Z,5.06
2023-04-25T12:33:48.182Z,5.00
2023-04-25T12:34:52.168Z,5.19
2023-04-25T12:35:56.544Z,6.62
2023-04-25T12:37:00.513Z,5.69
2023-04-25T12:38:04.472Z,3.25
2023-04-25T12:39:08.539Z,5.75
2023-04-25T12:40:13.631Z,3.50
2023-04-25T12:41:17.566Z,6.06
2023-04-25T12:42:21.569Z,5.12
2023-04-25T12:43:25.822Z,5.00
2023-04-25T12:44:29.851Z,5.31
2023-04-25T12:45:33.749Z,5.75
2023-04-25T12:46:38.652Z,5.69
2023-04-25T12:47:42.648Z,5.69
2023-04-25T12:48:46.669Z,6.62
2023-04-25T12:49:50.627Z,6.25
2023-04-25T12:50:54.645Z,5.19
2023-04-25T12:51:58.780Z,5.69
2023-04-25T12:53:02.705Z,5.94
2023-04-25T12:54:07.319Z,6.25
2023-04-25T12:55:11.272Z,6.37
2023-04-25T12:56:15.387Z,5.87
2023-04-25T12:57:20.076Z,7.06
2023-04-25T12:58:23.948Z,4.25
2023-04-25T12:59:27.875Z,6.62
2023-04-25T13:00:32.440Z,3.19
2023-04-25T13:01:36.783Z,6.62
2023-04-25T13:02:41.163Z,5.87
2023-04-25T13:03:45.501Z,5.75
2023-04-25T13:04:49.738Z,4.87
2023-04-25T13:05:53.956Z,7.31
2023-04-25T13:06:57.909Z,6.50
2023-04-25T13:08:01.851Z,6.12
2023-04-25T13:09:05.823Z,5.69
2023-04-25T13:10:10.215Z,3.19
2023-04-25T13:11:14.391Z,5.62
2023-04-25T13:12:18.304Z,5.75
2023-04-25T13:13:22.256Z,5.62
2023-04-25T13:14:26.278Z,2.44
2023-04-25T13:15:30.512Z,6.56
2023-04-25T13:16:36.174Z,5.75
2023-04-25T13:17:40.592Z,3.94
2023-04-25T13:18:44.526Z,5.56
2023-04-25T13:19:49.780Z,6.31
2023-04-25T13:20:54.460Z,5.12
2023-04-25T13:22:00.155Z,6.25
2023-04-25T13:23:05.681Z,4.06
2023-04-25T13:24:11.184Z,5.69
2023-04-25T13:25:15.106Z,4.56
2023-04-25T13:26:19.076Z,6.00
2023-04-25T13:27:29.733Z,11.00
2023-04-25T13:28:32.362Z,13.50
2023-04-25T13:29:35.939Z,6.81
2023-04-25T13:30:40.225Z,6.44
2023-04-25T13:31:44.218Z,7.50
2023-04-25T13:32:48.151Z,3.31
2023-04-25T13:33:52.811Z,4.62
2023-04-25T13:34:57.137Z,5.69
2023-04-25T13:36:02.791Z,5.56
2023-04-25T13:37:06.722Z,5.81
2023-04-25T13:38:10.788Z,6.19
2023-04-25T13:39:14.777Z,4.94
2023-04-25T13:40:20.432Z,6.00
2023-04-25T13:41:24.368Z,6.25
2023-04-25T13:42:28.480Z,5.19
2023-04-25T13:43:34.035Z,6.19
2023-04-25T13:44:37.901Z,5.62
2023-04-25T13:45:41.902Z,5.19
2023-04-25T13:46:47.404Z,6.00
2023-04-25T13:47:52.590Z,6.12
2023-04-25T13:49:03.015Z,6.62
2023-04-25T13:50:06.305Z,6.19
2023-04-25T13:51:10.257Z,6.81
2023-04-25T13:52:14.102Z,5.50
2023-04-25T13:53:18.036Z,6.12
2023-04-25T13:54:22.066Z,6.44
2023-04-25T13:55:26.017Z,4.50
2023-04-25T13:56:29.980Z,3.69
2023-04-25T13:57:34.351Z,3.06
2023-04-25T13:58:38.692Z,5.31
2023-04-25T13:59:42.634Z,3.31
2023-04-25T14:00:46.635Z,5.87
2023-04-25T14:01:50.549Z,6.00
2023-04-25T14:02:54.567Z,5.56
2023-04-25T14:03:58.570Z,5.62
2023-04-25T14:05:02.940Z,5.25
2023-04-25T14:06:07.273Z,4.00
2023-04-25T14:07:11.286Z,4.81
2023-04-25T14:08:15.139Z,2.75
2023-04-25T14:09:20.282Z,6.37
2023-04-25T14:10:25.814Z,5.31
2023-04-25T14:11:29.732Z,8.75
2023-04-25T14:12:35.386Z,11.06